Time;durP1;ratioP1;P1;durP2;ratioP2;P2;SDS_P1;SDS_P2;PMS_P1;PMS_P2;Temp;Humidity;BMP_temperature;BMP_pressure;BME280_temperature;BME280_humidity;BME280_pressure;Samples;Min_cycle;Max_cycle;Signal;HPM_P1;HPM_P2
2022/03/01 00:01:09;;;;;;;59.00;7.35;;;;;;;;;;4956007;28;20089;-31
2022/03/01 00:03:37;;;;;;;65.40;8.57;;;;;;;;;;4955253;28;20078;-31
2022/03/01 00:06:04;;;;;;;68.35;9.18;;;;;;;;;;4955118;28;20024;-33
2022/03/01 00:08:32;;;;;;;67.53;12.02;;;;;;;;;;4967950;28;20421;-34
2022/03/01 00:10:59;;;;;;;110.05;14.95;;;;;;;;;;4973537;28;20661;-33
2022/03/01 00:13:27;;;;;;;94.20;14.15;;;;;;;;;;4972989;28;20066;-33
2022/03/01 00:15:54;;;;;;;96.95;14.45;;;;;;;;;;4972623;28;20037;-33
2022/03/01 00:18:21;;;;;;;79.88;14.68;;;;;;;;;;4956789;28;20035;-34
2022/03/01 00:20:48;;;;;;;79.88;13.68;;;;;;;;;;4954967;28;20138;-33
2022/03/01 00:23:15;;;;;;;90.40;14.23;;;;;;;;;;4968312;28;20106;-32
2022/03/01 00:25:42;;;;;;;71.40;12.70;;;;;;;;;;4971998;28;20043;-33
2022/03/01 00:28:09;;;;;;;91.63;14.88;;;;;;;;;;4964259;28;20077;-31
2022/03/01 00:30:36;;;;;;;83.75;12.93;;;;;;;;;;4959719;28;20043;-33
2022/03/01 00:33:03;;;;;;;77.78;12.85;;;;;;;;;;4954575;28;20178;-33
2022/03/01 00:35:30;;;;;;;86.97;14.00;;;;;;;;;;4953819;28;20023;-35
2022/03/01 00:37:57;;;;;;;113.32;15.15;;;;;;;;;;4962975;28;20031;-34
2022/03/01 00:40:25;;;;;;;96.13;14.18;;;;;;;;;;4973651;28;20029;-33
2022/03/01 00:42:52;;;;;;;102.43;15.07;;;;;;;;;;4973663;28;20093;-32
2022/03/01 00:45:19;;;;;;;97.20;14.38;;;;;;;;;;4961771;28;20031;-32
2022/03/01 00:47:47;;;;;;;122.22;17.60;;;;;;;;;;4961979;28;20057;-32
2022/03/01 00:50:14;;;;;;;131.43;19.42;;;;;;;;;;4956042;28;20035;-33
2022/03/01 00:52:42;;;;;;;135.60;20.85;;;;;;;;;;4958431;28;20061;-34
2022/03/01 00:55:09;;;;;;;115.22;18.30;;;;;;;;;;4973304;28;20533;-33
2022/03/01 00:57:36;;;;;;;122.40;21.25;;;;;;;;;;4971315;28;20087;-33
2022/03/01 01:00:05;;;;;;;117.57;19.35;;;;;;;;;;4972669;28;20031;-33
2022/03/01 01:02:32;;;;;;;129.60;21.27;;;;;;;;;;4972955;28;20046;-31
2022/03/01 01:04:59;;;;;;;127.22;20.83;;;;;;;;;;4993402;28;20034;-33
2022/03/01 01:07:27;;;;;;;134.88;21.60;;;;;;;;;;5002165;23;20066;-37
2022/03/01 01:09:54;;;;;;;140.90;21.58;;;;;;;;;;4989613;28;20031;-38
2022/03/01 01:12:21;;;;;;;140.55;22.75;;;;;;;;;;4992012;28;20050;-38
2022/03/01 01:14:48;;;;;;;119.70;23.27;;;;;;;;;;4993298;28;20096;-38
2022/03/01 01:17:15;;;;;;;136.45;26.77;;;;;;;;;;4991298;28;20023;-38
2022/03/01 01:19:42;;;;;;;143.35;25.95;;;;;;;;;;4992735;28;20035;-37
2022/03/01 01:24:55;;;;;;;142.95;26.42;;;;;;;;;;5006683;28;20041;-38
2022/03/01 01:27:22;;;;;;;157.40;27.17;;;;;;;;;;5011520;28;20069;-38
2022/03/01 01:29:49;;;;;;;145.65;27.17;;;;;;;;;;5010853;28;20033;-38
2022/03/01 01:32:16;;;;;;;118.38;26.15;;;;;;;;;;4992600;28;20054;-37
2022/03/01 01:34:43;;;;;;;146.00;25.95;;;;;;;;;;4992041;28;20045;-37
2022/03/01 01:37:10;;;;;;;140.50;27.40;;;;;;;;;;4991641;28;20058;-37
2022/03/01 01:39:37;;;;;;;145.55;26.80;;;;;;;;;;4991990;28;20026;-38
2022/03/01 01:42:04;;;;;;;136.40;27.58;;;;;;;;;;5023479;28;20396;-38
2022/03/01 01:44:32;;;;;;;149.43;25.52;;;;;;;;;;4991826;28;20429;-38
2022/03/01 01:46:59;;;;;;;126.80;24.95;;;;;;;;;;4989499;28;20030;-36
2022/03/01 01:49:26;;;;;;;134.55;24.83;;;;;;;;;;4992207;28;20488;-37
2022/03/01 01:51:54;;;;;;;128.07;24.33;;;;;;;;;;4991882;28;20049;-37
2022/03/01 01:54:21;;;;;;;150.90;26.00;;;;;;;;;;4992464;28;20022;-37
2022/03/01 01:56:48;;;;;;;144.15;26.50;;;;;;;;;;4991419;28;20023;-37
2022/03/01 01:59:15;;;;;;;144.73;27.48;;;;;;;;;;4991442;28;20022;-35
2022/03/01 02:01:42;;;;;;;141.75;27.55;;;;;;;;;;4992096;28;20022;-37
2022/03/01 02:04:10;;;;;;;144.13;27.38;;;;;;;;;;4992495;28;20562;-37
2022/03/01 02:06:53;;;;;;;156.65;28.38;;;;;;;;;;4990938;28;20038;-37
2022/03/01 02:09:21;;;;;;;147.60;26.75;;;;;;;;;;4991641;28;20092;-37
2022/03/01 02:11:47;;;;;;;149.40;27.38;;;;;;;;;;4991566;28;20022;-37
2022/03/01 02:14:14;;;;;;;140.18;27.88;;;;;;;;;;4991648;28;20376;-37
2022/03/01 02:16:42;;;;;;;139.13;27.55;;;;;;;;;;4988401;28;20018;-37
2022/03/01 02:19:12;;;;;;;125.25;27.02;;;;;;;;;;4988753;28;20481;-37
2022/03/01 02:21:50;;;;;;;127.00;25.92;;;;;;;;;;4992228;28;20106;-37
2022/03/01 02:24:17;;;;;;;131.73;27.15;;;;;;;;;;4992035;28;20492;-37
2022/03/01 02:26:44;;;;;;;115.90;27.13;;;;;;;;;;4991961;28;20030;-37
2022/03/01 02:29:11;;;;;;;131.70;28.35;;;;;;;;;;4991804;28;20377;-37
2022/03/01 02:31:38;;;;;;;121.20;26.38;;;;;;;;;;4992323;28;20027;-36
2022/03/01 02:34:05;;;;;;;115.13;27.20;;;;;;;;;;4991816;28;20030;-37
2022/03/01 02:36:32;;;;;;;157.00;27.23;;;;;;;;;;4992242;28;20032;-37
2022/03/01 02:38:59;;;;;;;161.20;29.13;;;;;;;;;;4991758;28;20524;-36
2022/03/01 02:41:27;;;;;;;131.75;26.92;;;;;;;;;;4991870;28;20046;-37
2022/03/01 02:43:54;;;;;;;118.50;24.10;;;;;;;;;;4991724;28;20400;-36
2022/03/01 02:46:21;;;;;;;121.25;23.73;;;;;;;;;;4991599;28;20030;-37
2022/03/01 02:48:48;;;;;;;96.97;22.67;;;;;;;;;;4992195;28;20385;-37
2022/03/01 02:51:15;;;;;;;128.98;23.50;;;;;;;;;;4992162;28;20030;-37
2022/03/01 02:53:42;;;;;;;117.78;22.02;;;;;;;;;;4991416;28;20041;-37
2022/03/01 02:56:09;;;;;;;117.70;22.92;;;;;;;;;;4991357;28;20034;-37
2022/03/01 02:58:36;;;;;;;105.00;22.10;;;;;;;;;;4991829;28;20062;-37
2022/03/01 03:01:03;;;;;;;93.95;20.77;;;;;;;;;;4991846;28;20480;-37
2022/03/01 03:03:30;;;;;;;84.53;19.50;;;;;;;;;;4992184;28;20038;-37
2022/03/01 03:05:57;;;;;;;78.03;18.65;;;;;;;;;;4991663;28;20028;-37
2022/03/01 03:08:24;;;;;;;85.90;18.08;;;;;;;;;;4989559;28;20125;-37
2022/03/01 03:10:51;;;;;;;79.05;17.48;;;;;;;;;;4991354;28;20036;-37
2022/03/01 03:13:19;;;;;;;70.78;17.67;;;;;;;;;;4991016;28;20026;-37
2022/03/01 03:15:47;;;;;;;77.05;17.33;;;;;;;;;;4991494;28;20030;-37
2022/03/01 03:18:15;;;;;;;64.13;16.98;;;;;;;;;;4991078;28;20544;-36
2022/03/01 03:20:42;;;;;;;76.45;17.10;;;;;;;;;;4990480;28;20026;-37
2022/03/01 03:23:09;;;;;;;64.38;15.98;;;;;;;;;;4990780;28;20033;-37
2022/03/01 03:25:36;;;;;;;71.05;16.67;;;;;;;;;;4991165;28;20396;-37
2022/03/01 03:28:04;;;;;;;55.95;15.52;;;;;;;;;;4990368;28;20034;-40
2022/03/01 03:30:31;;;;;;;69.78;16.05;;;;;;;;;;4991216;28;20139;-37
2022/03/01 03:32:58;;;;;;;59.05;14.82;;;;;;;;;;4991048;28;20026;-36
2022/03/01 03:35:25;;;;;;;41.35;13.05;;;;;;;;;;4991175;28;20084;-36
2022/03/01 03:37:52;;;;;;;61.63;13.57;;;;;;;;;;4989921;28;20109;-34
2022/03/01 03:40:19;;;;;;;50.13;12.18;;;;;;;;;;4989741;28;20031;-37
2022/03/01 03:42:46;;;;;;;51.47;12.27;;;;;;;;;;4990488;28;20040;-37
2022/03/01 03:45:13;;;;;;;60.53;14.10;;;;;;;;;;4990648;28;20417;-37
2022/03/01 03:47:41;;;;;;;52.40;11.02;;;;;;;;;;4990696;28;20393;-35
2022/03/01 03:50:11;;;;;;;54.08;11.98;;;;;;;;;;4991628;28;20027;-37
2022/03/01 03:52:39;;;;;;;61.65;12.63;;;;;;;;;;4990173;28;20029;-35
2022/03/01 03:55:07;;;;;;;43.00;10.65;;;;;;;;;;4991291;28;20023;-37
2022/03/01 03:57:35;;;;;;;39.10;9.27;;;;;;;;;;4990289;28;20504;-37
2022/03/01 04:00:03;;;;;;;42.47;9.73;;;;;;;;;;4988978;28;20034;-37
2022/03/01 04:02:30;;;;;;;47.30;10.73;;;;;;;;;;4990994;28;20026;-37
2022/03/01 04:04:57;;;;;;;39.63;9.88;;;;;;;;;;4990773;28;20087;-37
2022/03/01 04:07:24;;;;;;;30.25;8.32;;;;;;;;;;4990536;28;20582;-34
2022/03/01 04:09:51;;;;;;;46.63;9.88;;;;;;;;;;4989172;28;20054;-38
2022/03/01 04:12:19;;;;;;;29.95;8.52;;;;;;;;;;4990361;28;20122;-34
2022/03/01 04:14:46;;;;;;;38.42;9.65;;;;;;;;;;4989331;28;20109;-37
2022/03/01 04:17:13;;;;;;;30.08;7.50;;;;;;;;;;4990733;28;20029;-36
2022/03/01 04:19:40;;;;;;;32.58;7.68;;;;;;;;;;4992788;28;20237;-36
2022/03/01 04:22:06;;;;;;;34.00;7.55;;;;;;;;;;5011439;28;20420;-37
2022/03/01 04:24:33;;;;;;;39.80;8.20;;;;;;;;;;5012945;28;20033;-37
2022/03/01 04:27:02;;;;;;;39.03;7.18;;;;;;;;;;5005579;28;20041;-37
2022/03/01 04:29:29;;;;;;;41.40;7.95;;;;;;;;;;4993208;28;20465;-37
2022/03/01 04:31:56;;;;;;;30.02;6.80;;;;;;;;;;4995085;28;20033;-37
2022/03/01 04:34:23;;;;;;;33.13;6.72;;;;;;;;;;5002599;28;20037;-38
2022/03/01 04:36:50;;;;;;;26.58;6.00;;;;;;;;;;5010813;28;20388;-37
2022/03/01 04:39:17;;;;;;;26.45;6.28;;;;;;;;;;5013442;28;20026;-37
2022/03/01 04:41:44;;;;;;;20.05;5.13;;;;;;;;;;5013258;28;20037;-37
2022/03/01 04:44:11;;;;;;;29.33;5.90;;;;;;;;;;5007317;28;20108;-38
2022/03/01 04:46:38;;;;;;;26.42;5.57;;;;;;;;;;4993587;28;20054;-37
2022/03/01 04:49:05;;;;;;;23.90;4.88;;;;;;;;;;4992074;28;20046;-37
2022/03/01 04:51:32;;;;;;;22.63;4.90;;;;;;;;;;4993734;28;20100;-37
2022/03/01 04:53:59;;;;;;;23.25;5.28;;;;;;;;;;4993413;28;20050;-37
2022/03/01 04:56:26;;;;;;;25.48;5.25;;;;;;;;;;4991062;28;20049;-38
2022/03/01 04:58:53;;;;;;;23.63;5.32;;;;;;;;;;4992663;28;20068;-37
2022/03/01 05:01:20;;;;;;;21.98;4.78;;;;;;;;;;4993670;28;20026;-37
2022/03/01 05:03:47;;;;;;;25.85;5.38;;;;;;;;;;4992915;28;20095;-38
2022/03/01 05:06:15;;;;;;;25.33;4.63;;;;;;;;;;4993906;28;20022;-38
2022/03/01 05:08:42;;;;;;;20.15;4.28;;;;;;;;;;4993047;28;20145;-38
2022/03/01 05:11:09;;;;;;;38.15;4.75;;;;;;;;;;4993012;28;20034;-38
2022/03/01 05:13:36;;;;;;;15.70;2.75;;;;;;;;;;4993770;28;20125;-40
2022/03/01 05:16:03;;;;;;;19.00;3.30;;;;;;;;;;4993051;28;20022;-38
2022/03/01 05:18:30;;;;;;;9.10;3.40;;;;;;;;;;4992743;28;20026;-37
2022/03/01 05:20:57;;;;;;;14.15;4.15;;;;;;;;;;4993112;28;20030;-39
2022/03/01 05:23:23;;;;;;;16.25;3.75;;;;;;;;;;4992862;28;20100;-37
2022/03/01 05:25:50;;;;;;;18.17;4.07;;;;;;;;;;4993085;28;20038;-37
2022/03/01 05:28:17;;;;;;;13.65;4.65;;;;;;;;;;4993019;28;20421;-38
2022/03/01 05:30:44;;;;;;;32.30;4.57;;;;;;;;;;4993090;28;20061;-37
2022/03/01 05:33:12;;;;;;;63.42;5.57;;;;;;;;;;4992230;28;20097;-38
2022/03/01 05:35:39;;;;;;;25.23;4.18;;;;;;;;;;4993432;28;20037;-37
2022/03/01 05:38:09;;;;;;;23.73;3.15;;;;;;;;;;4993299;28;20038;-37
2022/03/01 05:40:38;;;;;;;18.30;2.78;;;;;;;;;;4992531;28;20038;-36
2022/03/01 05:43:06;;;;;;;20.02;3.22;;;;;;;;;;4992611;28;20042;-36
2022/03/01 05:45:33;;;;;;;22.00;2.78;;;;;;;;;;4992704;28;20030;-38
2022/03/01 05:48:00;;;;;;;21.92;2.22;;;;;;;;;;4992113;28;20378;-38
2022/03/01 05:50:28;;;;;;;23.65;2.28;;;;;;;;;;4991698;28;20058;-37
2022/03/01 05:52:55;;;;;;;34.70;2.80;;;;;;;;;;4992598;28;20022;-35
2022/03/01 05:55:22;;;;;;;40.92;3.50;;;;;;;;;;4992524;28;20121;-38
2022/03/01 05:57:49;;;;;;;23.25;3.10;;;;;;;;;;4991991;28;20488;-38
2022/03/01 06:00:18;;;;;;;16.83;1.90;;;;;;;;;;4992806;28;20030;-37
2022/03/01 06:02:45;;;;;;;13.88;1.83;;;;;;;;;;4992614;28;20030;-36
2022/03/01 06:05:14;;;;;;;17.40;1.38;;;;;;;;;;4992428;28;20037;-37
2022/03/01 06:07:41;;;;;;;19.63;1.55;;;;;;;;;;4991875;28;20041;-36
2022/03/01 06:10:08;;;;;;;10.00;1.33;;;;;;;;;;4992954;28;20489;-38
2022/03/01 06:12:35;;;;;;;12.88;1.33;;;;;;;;;;4992258;28;20034;-38
2022/03/01 06:15:03;;;;;;;9.20;0.75;;;;;;;;;;4992174;28;20034;-37
2022/03/01 06:17:30;;;;;;;7.00;0.75;;;;;;;;;;4992716;28;20045;-38
2022/03/01 06:19:57;;;;;;;5.88;0.70;;;;;;;;;;4990236;28;20393;-37
2022/03/01 06:22:24;;;;;;;7.40;0.90;;;;;;;;;;4992199;28;20030;-38
2022/03/01 06:24:54;;;;;;;6.18;1.00;;;;;;;;;;4990867;28;20057;-38
2022/03/01 06:27:21;;;;;;;3.38;0.50;;;;;;;;;;4992742;28;20105;-38
2022/03/01 06:29:48;;;;;;;5.95;0.90;;;;;;;;;;4991325;28;20168;-38
2022/03/01 06:32:16;;;;;;;18.48;1.70;;;;;;;;;;4992570;28;20130;-38
2022/03/01 06:34:43;;;;;;;17.08;1.50;;;;;;;;;;4991935;28;20109;-38
2022/03/01 06:37:13;;;;;;;21.88;1.60;;;;;;;;;;4992904;28;20029;-38
2022/03/01 06:39:41;;;;;;;11.82;1.15;;;;;;;;;;4991313;28;20038;-36
2022/03/01 06:42:08;;;;;;;13.93;1.10;;;;;;;;;;4992857;28;20500;-37
2022/03/01 06:44:35;;;;;;;10.88;1.10;;;;;;;;;;4991496;28;20030;-37
2022/03/01 06:47:02;;;;;;;5.72;0.70;;;;;;;;;;4992199;28;20113;-35
2022/03/01 06:49:30;;;;;;;6.53;0.80;;;;;;;;;;4992143;28;20023;-34
2022/03/01 06:51:57;;;;;;;7.82;0.82;;;;;;;;;;4991237;28;20046;-38
2022/03/01 06:54:24;;;;;;;5.70;0.77;;;;;;;;;;4992208;28;20115;-38
2022/03/01 06:56:50;;;;;;;2.63;0.75;;;;;;;;;;4991355;28;20026;-36
2022/03/01 06:59:17;;;;;;;8.80;1.10;;;;;;;;;;4992219;28;20030;-37
2022/03/01 07:01:44;;;;;;;13.50;1.30;;;;;;;;;;4991068;28;20527;-36
2022/03/01 07:04:11;;;;;;;14.52;1.38;;;;;;;;;;4992158;28;20034;-38
2022/03/01 07:06:38;;;;;;;9.75;1.45;;;;;;;;;;4991233;28;20740;-36
2022/03/01 07:09:05;;;;;;;16.30;1.60;;;;;;;;;;4992340;28;20105;-38
2022/03/01 07:11:32;;;;;;;10.50;1.40;;;;;;;;;;4990864;28;20030;-37
2022/03/01 07:13:59;;;;;;;16.00;1.20;;;;;;;;;;4992178;28;20366;-37
2022/03/01 07:16:26;;;;;;;5.43;0.95;;;;;;;;;;4991336;28;20477;-36
2022/03/01 07:18:54;;;;;;;14.15;1.00;;;;;;;;;;4992303;28;20026;-37
2022/03/01 07:21:22;;;;;;;7.38;1.00;;;;;;;;;;4991209;28;20030;-37
2022/03/01 07:23:50;;;;;;;3.17;0.70;;;;;;;;;;4992180;28;20066;-38
2022/03/01 07:26:17;;;;;;;6.05;1.58;;;;;;;;;;4991436;28;20049;-35
2022/03/01 07:28:44;;;;;;;4.82;0.82;;;;;;;;;;4992076;28;20477;-35
2022/03/01 07:31:11;;;;;;;3.05;0.70;;;;;;;;;;4991168;28;20027;-37
2022/03/01 07:33:40;;;;;;;4.43;0.73;;;;;;;;;;4992022;28;20030;-36
2022/03/01 07:36:08;;;;;;;1.95;0.88;;;;;;;;;;4989102;28;20614;-39
2022/03/01 07:38:35;;;;;;;5.72;0.82;;;;;;;;;;4990554;28;20436;-37
2022/03/01 07:41:02;;;;;;;11.60;0.90;;;;;;;;;;4991029;28;20029;-38
2022/03/01 07:43:29;;;;;;;5.85;0.82;;;;;;;;;;4990355;28;20035;-37
2022/03/01 07:45:56;;;;;;;6.93;0.98;;;;;;;;;;4991334;28;20026;-38
2022/03/01 07:48:23;;;;;;;2.92;0.80;;;;;;;;;;4990466;28;20026;-38
2022/03/01 07:50:50;;;;;;;2.83;0.60;;;;;;;;;;4990905;28;20023;-35
2022/03/01 07:53:17;;;;;;;5.93;0.80;;;;;;;;;;4990601;28;20022;-37
2022/03/01 07:55:44;;;;;;;4.25;0.88;;;;;;;;;;4992924;28;20064;-36
2022/03/01 07:58:11;;;;;;;4.90;0.98;;;;;;;;;;4994743;28;20031;-37
2022/03/01 08:00:38;;;;;;;4.93;0.60;;;;;;;;;;4994912;28;20022;-36
2022/03/01 08:03:05;;;;;;;9.38;1.20;;;;;;;;;;4993692;28;20022;-37
2022/03/01 08:05:32;;;;;;;36.85;2.80;;;;;;;;;;4995307;28;20499;-38
2022/03/01 08:07:59;;;;;;;38.97;2.63;;;;;;;;;;4994058;28;20049;-36
2022/03/01 08:10:26;;;;;;;34.92;2.63;;;;;;;;;;4994459;28;20030;-36
2022/03/01 08:12:54;;;;;;;46.35;3.58;;;;;;;;;;4994054;28;20022;-36
2022/03/01 08:15:21;;;;;;;69.53;3.67;;;;;;;;;;4994554;28;20018;-38
2022/03/01 08:17:49;;;;;;;44.55;3.40;;;;;;;;;;4994462;28;20041;-36
2022/03/01 08:20:16;;;;;;;39.05;3.20;;;;;;;;;;4994543;28;20646;-38
2022/03/01 08:22:43;;;;;;;55.90;4.07;;;;;;;;;;4993538;28;20040;-38
2022/03/01 08:25:10;;;;;;;24.15;1.83;;;;;;;;;;4994565;28;20052;-38
2022/03/01 08:27:37;;;;;;;22.83;1.83;;;;;;;;;;4994440;28;20404;-38
2022/03/01 08:30:04;;;;;;;18.60;1.65;;;;;;;;;;4993680;28;20381;-37
2022/03/01 08:32:31;;;;;;;15.63;1.45;;;;;;;;;;4993653;28;20030;-36
2022/03/01 08:34:58;;;;;;;23.58;2.00;;;;;;;;;;4994358;28;20102;-39
2022/03/01 08:37:26;;;;;;;33.17;3.40;;;;;;;;;;4994276;28;20034;-38
2022/03/01 08:39:53;;;;;;;55.35;3.20;;;;;;;;;;4993874;28;20026;-36
2022/03/01 08:42:20;;;;;;;48.42;3.67;;;;;;;;;;4994445;28;20058;-39
2022/03/01 08:44:47;;;;;;;45.65;4.82;;;;;;;;;;4993211;28;20217;-38
2022/03/01 08:47:14;;;;;;;46.25;3.90;;;;;;;;;;4994356;28;20030;-38
2022/03/01 08:49:41;;;;;;;30.85;2.58;;;;;;;;;;4993652;28;20034;-36
2022/03/01 08:52:08;;;;;;;36.63;2.60;;;;;;;;;;4994029;28;20569;-39
2022/03/01 08:54:35;;;;;;;26.35;2.25;;;;;;;;;;4993492;28;20030;-38
2022/03/01 08:57:02;;;;;;;16.48;2.08;;;;;;;;;;4993902;28;20026;-38
2022/03/01 08:59:29;;;;;;;17.70;2.88;;;;;;;;;;4993661;28;20616;-38
2022/03/01 09:01:58;;;;;;;7.55;1.88;;;;;;;;;;4993399;28;20146;-37
2022/03/01 09:04:25;;;;;;;14.25;2.42;;;;;;;;;;4993507;28;20030;-39
2022/03/01 09:06:52;;;;;;;15.38;2.95;;;;;;;;;;4993105;28;20030;-39
2022/03/01 09:09:19;;;;;;;14.50;2.40;;;;;;;;;;4993506;28;20050;-39
2022/03/01 09:11:46;;;;;;;14.48;3.00;;;;;;;;;;4992807;28;20038;-38
2022/03/01 09:14:13;;;;;;;13.35;3.85;;;;;;;;;;4993417;28;20038;-38
2022/03/01 09:16:40;;;;;;;13.18;4.05;;;;;;;;;;4992857;28;20384;-36
2022/03/01 09:19:11;;;;;;;12.82;4.30;;;;;;;;;;4993368;28;20072;-37
2022/03/01 09:21:38;;;;;;;15.82;4.75;;;;;;;;;;4992707;28;20034;-38
2022/03/01 09:24:05;;;;;;;25.50;5.35;;;;;;;;;;4993652;28;20061;-38
2022/03/01 09:26:32;;;;;;;37.15;5.85;;;;;;;;;;4992914;28;20057;-36
2022/03/01 09:28:59;;;;;;;26.27;5.53;;;;;;;;;;4992713;28;20034;-37
2022/03/01 09:31:26;;;;;;;24.15;5.50;;;;;;;;;;4992576;28;20033;-39
2022/03/01 09:33:53;;;;;;;16.75;4.20;;;;;;;;;;4993036;28;20496;-38
2022/03/01 09:36:20;;;;;;;22.77;5.10;;;;;;;;;;4992897;28;20030;-38
2022/03/01 09:38:47;;;;;;;30.00;12.77;;;;;;;;;;4992640;28;20038;-39
2022/03/01 09:41:14;;;;;;;34.17;13.38;;;;;;;;;;4992608;28;20030;-38
2022/03/01 09:43:42;;;;;;;35.80;15.38;;;;;;;;;;4992800;28;20161;-39
2022/03/01 09:46:10;;;;;;;37.60;14.23;;;;;;;;;;4992527;28;20046;-39
2022/03/01 09:48:37;;;;;;;37.42;15.55;;;;;;;;;;4992130;28;20081;-39
2022/03/01 09:51:05;;;;;;;39.45;14.73;;;;;;;;;;4993416;28;20104;-38
2022/03/01 09:53:32;;;;;;;35.83;14.45;;;;;;;;;;4991687;28;20056;-38
2022/03/01 09:56:07;;;;;;;34.63;14.52;;;;;;;;;;4993263;28;20037;-35
2022/03/01 09:58:35;;;;;;;24.63;10.25;;;;;;;;;;4992581;28;20039;-38
2022/03/01 10:01:02;;;;;;;20.00;8.90;;;;;;;;;;4992094;28;20057;-36
2022/03/01 10:03:29;;;;;;;71.47;11.13;;;;;;;;;;4992282;28;20507;-38
2022/03/01 10:06:06;;;;;;;112.82;16.50;;;;;;;;;;4992517;28;20177;-39
2022/03/01 10:08:33;;;;;;;105.07;15.20;;;;;;;;;;4991818;28;20166;-37
2022/03/01 10:11:00;;;;;;;65.43;12.32;;;;;;;;;;4993052;28;20037;-39
2022/03/01 10:13:31;;;;;;;80.55;14.00;;;;;;;;;;4991661;28;20101;-36
2022/03/01 10:16:09;;;;;;;94.90;13.00;;;;;;;;;;4992747;28;20077;-39
2022/03/01 10:21:59;;;;;;;105.20;11.95;;;;;;;;;;4989934;28;20084;-38
2022/03/01 10:24:26;;;;;;;74.60;8.30;;;;;;;;;;4991304;28;20038;-39
2022/03/01 10:26:57;;;;;;;61.50;7.20;;;;;;;;;;4992742;28;20037;-39
2022/03/01 10:29:27;;;;;;;62.97;7.10;;;;;;;;;;4991662;28;20093;-38
2022/03/01 10:31:59;;;;;;;56.65;5.63;;;;;;;;;;4992137;28;20057;-39
2022/03/01 10:34:27;;;;;;;45.55;4.55;;;;;;;;;;4991978;28;20061;-38
2022/03/01 10:36:54;;;;;;;42.53;4.60;;;;;;;;;;4992468;28;20030;-39
2022/03/01 10:39:21;;;;;;;50.78;3.70;;;;;;;;;;4983962;28;20034;-39
2022/03/01 10:41:50;;;;;;;35.05;3.47;;;;;;;;;;4972949;28;20035;-37
2022/03/01 10:44:30;;;;;;;41.42;3.33;;;;;;;;;;4971920;28;20126;-38
2022/03/01 10:46:59;;;;;;;29.77;2.88;;;;;;;;;;4972535;28;20083;-39
2022/03/01 10:49:32;;;;;;;43.90;3.90;;;;;;;;;;4972856;28;20438;-39
2022/03/01 10:51:59;;;;;;;;;;;;;;;;;;4972406;28;20039;-39
2022/03/01 10:54:37;;;;;;;42.17;3.20;;;;;;;;;;4972346;28;19917;-38
2022/03/01 10:57:05;;;;;;;32.83;3.13;;;;;;;;;;4971691;28;20366;-38
2022/03/01 10:59:33;;;;;;;36.05;2.80;;;;;;;;;;4972203;28;20030;-39
2022/03/01 11:02:01;;;;;;;26.38;3.20;;;;;;;;;;4972313;28;20113;-39
2022/03/01 11:04:28;;;;;;;36.05;2.90;;;;;;;;;;4972423;28;20493;-38
2022/03/01 11:06:59;;;;;;;14.82;1.95;;;;;;;;;;4971545;28;20490;-38
2022/03/01 11:09:28;;;;;;;22.38;1.98;;;;;;;;;;4972539;28;20050;-36
2022/03/01 11:11:56;;;;;;;15.63;1.75;;;;;;;;;;4970639;28;20038;-38
2022/03/01 11:14:25;;;;;;;17.63;2.15;;;;;;;;;;4972490;28;20505;-36
2022/03/01 11:17:10;;;;;;;17.27;1.67;;;;;;;;;;4971464;28;20031;-37
2022/03/01 11:19:40;;;;;;;17.15;1.85;;;;;;;;;;4972418;28;20489;-36
2022/03/01 11:22:20;;;;;;;16.48;1.17;;;;;;;;;;4971121;28;20039;-39
2022/03/01 11:24:48;;;;;;;19.85;1.77;;;;;;;;;;4978467;28;20046;-39
2022/03/01 11:27:19;;;;;;;18.55;1.73;;;;;;;;;;4975375;28;20031;-39
2022/03/01 11:29:46;;;;;;;19.65;1.77;;;;;;;;;;4972744;28;20045;-37
2022/03/01 11:32:15;;;;;;;23.67;1.65;;;;;;;;;;4975763;28;20041;-37
2022/03/01 11:34:43;;;;;;;21.75;1.67;;;;;;;;;;4976043;28;20089;-38
2022/03/01 11:37:18;;;;;;;15.48;1.85;;;;;;;;;;4975866;28;20093;-36
2022/03/01 11:39:54;;;;;;;15.10;1.60;;;;;;;;;;4975758;28;20070;-38
2022/03/01 11:42:22;;;;;;;18.67;2.30;;;;;;;;;;4976100;28;20385;-38
2022/03/01 11:44:50;;;;;;;32.08;3.00;;;;;;;;;;4975374;28;20069;-39
2022/03/01 11:47:25;;;;;;;38.08;3.75;;;;;;;;;;4976493;28;20035;-39
2022/03/01 11:49:52;;;;;;;25.55;2.13;;;;;;;;;;4975245;28;20034;-38
2022/03/01 11:52:20;;;;;;;22.33;2.30;;;;;;;;;;4976276;28;20069;-37
2022/03/01 11:54:48;;;;;;;16.92;1.60;;;;;;;;;;4975523;28;20126;-37
2022/03/01 11:57:15;;;;;;;18.92;1.73;;;;;;;;;;4975419;28;20035;-38
2022/03/01 11:59:44;;;;;;;10.43;1.50;;;;;;;;;;4975790;28;20027;-38
2022/03/01 12:02:12;;;;;;;10.00;1.48;;;;;;;;;;4975464;28;20049;-38
2022/03/01 12:04:49;;;;;;;12.77;1.25;;;;;;;;;;4975289;28;20038;-37
2022/03/01 12:07:24;;;;;;;16.48;1.70;;;;;;;;;;4975763;28;20031;-38
2022/03/01 12:09:55;;;;;;;10.85;1.02;;;;;;;;;;4974955;28;20035;-39
2022/03/01 12:12:31;;;;;;;15.82;1.50;;;;;;;;;;4976133;28;20031;-38
2022/03/01 12:14:58;;;;;;;7.25;1.42;;;;;;;;;;4974757;28;20137;-37
2022/03/01 12:17:25;;;;;;;15.27;1.83;;;;;;;;;;4975385;28;20070;-39
2022/03/01 12:19:59;;;;;;;28.13;2.90;;;;;;;;;;4974910;28;20037;-38
2022/03/01 12:22:27;;;;;;;26.52;3.15;;;;;;;;;;4975713;28;20094;-38
2022/03/01 12:24:57;;;;;;;29.08;3.20;;;;;;;;;;4974372;28;20054;-39
2022/03/01 12:27:29;;;;;;;27.20;3.08;;;;;;;;;;4975392;28;20652;-39
2022/03/01 12:30:01;;;;;;;25.73;3.25;;;;;;;;;;4974630;28;20716;-39
2022/03/01 12:32:28;;;;;;;35.55;3.55;;;;;;;;;;4975109;28;20049;-37
2022/03/01 12:35:00;;;;;;;52.25;5.53;;;;;;;;;;4974442;28;20564;-37
2022/03/01 12:37:29;;;;;;;40.30;3.72;;;;;;;;;;4974520;28;20054;-38
2022/03/01 12:39:56;;;;;;;23.92;2.92;;;;;;;;;;4974689;28;20042;-37
2022/03/01 12:42:27;;;;;;;41.13;4.38;;;;;;;;;;4974785;28;20026;-38
2022/03/01 12:44:57;;;;;;;33.88;3.78;;;;;;;;;;4974958;28;20047;-38
2022/03/01 12:47:24;;;;;;;23.17;2.70;;;;;;;;;;4974345;28;20033;-39
2022/03/01 12:49:51;;;;;;;21.60;2.80;;;;;;;;;;4974035;28;20146;-38
2022/03/01 12:52:20;;;;;;;28.13;2.70;;;;;;;;;;4986725;28;20105;-36
2022/03/01 12:54:50;;;;;;;43.00;3.67;;;;;;;;;;4993022;28;20120;-38
2022/03/01 12:57:18;;;;;;;36.28;4.20;;;;;;;;;;4990351;28;20042;-38
2022/03/01 12:59:47;;;;;;;36.05;4.38;;;;;;;;;;4992436;28;20038;-37
2022/03/01 13:02:17;;;;;;;52.70;4.82;;;;;;;;;;4989382;28;20042;-37
2022/03/01 13:04:49;;;;;;;28.15;2.97;;;;;;;;;;4990771;28;20583;-39
2022/03/01 13:07:16;;;;;;;28.70;3.17;;;;;;;;;;4991832;28;20038;-38
2022/03/01 13:09:43;;;;;;;33.97;3.42;;;;;;;;;;4993654;28;20054;-38
2022/03/01 13:12:10;;;;;;;23.00;2.55;;;;;;;;;;4991431;28;20035;-38
2022/03/01 13:14:37;;;;;;;27.10;2.25;;;;;;;;;;4993279;28;20030;-40
2022/03/01 13:17:05;;;;;;;28.70;2.42;;;;;;;;;;4991852;28;20061;-43
2022/03/01 13:19:33;;;;;;;12.95;1.98;;;;;;;;;;4992239;28;20042;-39
2022/03/01 13:22:05;;;;;;;16.92;1.75;;;;;;;;;;4992228;28;20582;-36
2022/03/01 13:24:35;;;;;;;42.42;3.08;;;;;;;;;;4991583;28;20096;-36
2022/03/01 13:27:03;;;;;;;46.35;4.15;;;;;;;;;;4992230;28;20392;-41
2022/03/01 13:29:33;;;;;;;57.42;5.15;;;;;;;;;;4991520;28;20109;-40
2022/03/01 13:32:11;;;;;;;47.75;4.72;;;;;;;;;;4992981;28;20034;-41
2022/03/01 13:34:39;;;;;;;57.00;5.15;;;;;;;;;;4990387;28;20366;-40
2022/03/01 13:37:11;;;;;;;50.20;5.60;;;;;;;;;;4991870;28;20043;-40
2022/03/01 13:39:39;;;;;;;53.55;4.95;;;;;;;;;;4991380;28;20030;-38
2022/03/01 13:42:07;;;;;;;52.47;5.13;;;;;;;;;;4991391;28;20023;-38
2022/03/01 13:44:35;;;;;;;53.20;4.80;;;;;;;;;;4988530;28;20452;-41
2022/03/01 13:47:19;;;;;;;45.47;3.60;;;;;;;;;;4991706;28;20030;-40
2022/03/01 13:49:56;;;;;;;52.75;3.30;;;;;;;;;;4989200;28;20485;-41
2022/03/01 13:52:27;;;;;;;26.60;2.42;;;;;;;;;;4989763;28;20500;-42
2022/03/01 13:55:13;;;;;;;35.30;3.40;;;;;;;;;;4990068;28;20393;-40
2022/03/01 13:57:45;;;;;;;26.48;2.28;;;;;;;;;;4991237;28;20030;-41
2022/03/01 14:00:18;;;;;;;22.17;2.40;;;;;;;;;;4991693;28;20176;-40
2022/03/01 14:02:54;;;;;;;20.90;2.20;;;;;;;;;;4992148;28;20618;-42
2022/03/01 14:05:21;;;;;;;41.45;3.28;;;;;;;;;;4990820;28;20026;-42
2022/03/01 14:08:02;;;;;;;44.70;4.75;;;;;;;;;;4991079;28;20041;-40
2022/03/01 14:10:29;;;;;;;24.05;2.38;;;;;;;;;;4991910;28;20027;-42
2022/03/01 14:13:04;;;;;;;31.05;2.70;;;;;;;;;;4991915;28;20507;-39
2022/03/01 14:15:32;;;;;;;27.65;3.05;;;;;;;;;;4990643;28;20034;-45
2022/03/01 14:17:59;;;;;;;33.78;3.15;;;;;;;;;;4991946;28;20554;-40
2022/03/01 14:20:27;;;;;;;28.92;3.67;;;;;;;;;;4989679;28;20475;-44
2022/03/01 14:22:54;;;;;;;28.35;3.15;;;;;;;;;;4991415;28;20112;-38
2022/03/01 14:25:21;;;;;;;27.13;3.58;;;;;;;;;;4990545;28;20360;-44
2022/03/01 14:27:48;;;;;;;60.00;6.32;;;;;;;;;;4990985;28;20031;-40
2022/03/01 14:30:15;;;;;;;58.53;6.15;;;;;;;;;;4991238;28;20475;-41
2022/03/01 14:32:42;;;;;;;38.20;4.13;;;;;;;;;;4991395;28;20477;-39
2022/03/01 14:35:11;;;;;;;37.75;4.50;;;;;;;;;;4990526;28;20105;-39
2022/03/01 14:37:39;;;;;;;35.00;3.83;;;;;;;;;;4988640;28;20062;-39